createdAt,value
2023-03-07T00:02:02.741Z,14.20
2023-03-07T00:04:34.449Z,8.10
2023-03-07T00:07:06.205Z,10.70
2023-03-07T00:09:38.616Z,12.90
2023-03-07T00:12:11.517Z,10.60
2023-03-07T00:14:43.490Z,9.40
2023-03-07T00:17:15.169Z,6.30
2023-03-07T00:19:47.283Z,9.20
2023-03-07T00:22:18.997Z,10.10
2023-03-07T00:24:51.609Z,11.80
2023-03-07T00:27:23.401Z,12.30
2023-03-07T00:29:55.244Z,12.70
2023-03-07T00:32:27.385Z,12.60
2023-03-07T00:35:00.257Z,12.40
2023-03-07T00:37:31.971Z,13.10
2023-03-07T00:40:05.993Z,11.50
2023-03-07T00:42:37.667Z,13.10
2023-03-07T00:45:10.941Z,9.40
2023-03-07T00:47:42.625Z,11.50
2023-03-07T00:50:14.813Z,12.20
2023-03-07T00:52:46.476Z,11.70
2023-03-07T00:55:18.589Z,13.90
2023-03-07T00:57:50.258Z,12.20
2023-03-07T01:00:22.365Z,13.00
2023-03-07T01:02:57.002Z,12.90
2023-03-07T01:05:29.135Z,11.90
2023-03-07T01:08:01.175Z,10.50
2023-03-07T01:10:33.406Z,10.40
2023-03-07T01:13:05.333Z,5.40
2023-03-07T01:15:37.472Z,10.10
2023-03-07T01:18:10.585Z,12.00
2023-03-07T01:20:43.714Z,11.40
2023-03-07T01:23:15.534Z,12.50
2023-03-07T01:25:47.308Z,12.40
2023-03-07T01:28:19.201Z,12.60
2023-03-07T01:31:00.482Z,11.20
2023-03-07T01:33:32.248Z,11.60
2023-03-07T01:36:04.096Z,13.00
2023-03-07T01:38:35.967Z,11.80
2023-03-07T01:41:10.596Z,11.80
2023-03-07T01:43:42.643Z,12.50
2023-03-07T01:46:34.930Z,11.70
2023-03-07T01:49:09.558Z,15.40
2023-03-07T01:51:44.138Z,13.40
2023-03-07T01:54:17.525Z,12.90
2023-03-07T01:56:50.039Z,13.70
2023-03-07T01:59:24.761Z,13.70
2023-03-07T02:01:56.680Z,14.00
2023-03-07T02:04:31.577Z,13.80
2023-03-07T02:09:35.465Z,12.40
2023-03-07T02:12:07.809Z,12.50
2023-03-07T02:14:39.761Z,12.50
2023-03-07T02:17:11.592Z,12.20
2023-03-07T02:19:59.098Z,13.40
2023-03-07T02:25:02.392Z,13.00
2023-03-07T02:27:37.255Z,13.80
2023-03-07T02:30:12.277Z,12.80
2023-03-07T02:32:44.177Z,14.50
2023-03-07T02:35:21.994Z,14.40
2023-03-07T02:37:58.100Z,12.60
2023-03-07T02:40:31.777Z,12.50
2023-03-07T02:43:05.991Z,13.60
2023-03-07T02:45:37.939Z,12.70
2023-03-07T02:48:10.128Z,14.30
2023-03-07T02:50:41.873Z,14.30
2023-03-07T02:53:13.924Z,13.20
2023-03-07T02:55:45.636Z,13.10
2023-03-07T02:58:17.448Z,13.20
2023-03-07T03:00:49.306Z,13.90
2023-03-07T03:03:21.462Z,14.20
2023-03-07T03:05:53.365Z,13.20
2023-03-07T03:08:25.040Z,12.80
2023-03-07T03:10:57.389Z,14.10
2023-03-07T03:13:30.478Z,13.60
2023-03-07T03:16:02.470Z,14.70
2023-03-07T03:18:34.609Z,14.60
2023-03-07T03:21:11.497Z,14.30
2023-03-07T03:23:43.553Z,15.40
2023-03-07T03:26:15.386Z,13.00
2023-03-07T03:28:47.265Z,14.10
2023-03-07T03:31:19.254Z,14.10
2023-03-07T03:33:52.540Z,12.80
2023-03-07T03:36:25.818Z,12.20
2023-03-07T03:38:59.510Z,13.50
2023-03-07T03:41:31.800Z,12.70
2023-03-07T03:44:03.780Z,14.80
2023-03-07T03:46:35.731Z,14.50
2023-03-07T03:49:08.001Z,13.30
2023-03-07T03:51:40.051Z,14.80
2023-03-07T03:54:11.920Z,14.00
2023-03-07T03:56:43.617Z,13.30
2023-03-07T03:59:15.359Z,12.70
2023-03-07T04:01:47.935Z,13.40
2023-03-07T04:04:19.929Z,13.80
2023-03-07T04:06:51.710Z,14.30
2023-03-07T04:09:23.788Z,12.40
2023-03-07T04:11:55.675Z,14.80
2023-03-07T04:14:27.819Z,15.30
2023-03-07T04:16:59.568Z,14.10
2023-03-07T04:19:31.383Z,14.30
2023-03-07T04:22:03.149Z,13.30
2023-03-07T04:24:34.947Z,13.00
2023-03-07T04:27:07.700Z,13.30
2023-03-07T04:29:40.828Z,14.00
2023-03-07T04:32:25.100Z,12.80
2023-03-07T04:34:56.909Z,13.10
2023-03-07T04:37:28.802Z,12.60
2023-03-07T04:40:00.580Z,13.60
2023-03-07T04:42:32.356Z,15.30
2023-03-07T04:45:05.035Z,15.50
2023-03-07T04:47:36.857Z,15.30
2023-03-07T04:50:10.040Z,13.90
2023-03-07T04:52:42.936Z,14.50
2023-03-07T04:55:15.061Z,15.10
2023-03-07T04:57:47.642Z,14.20
2023-03-07T05:00:21.133Z,15.80
2023-03-07T05:02:53.864Z,17.70
2023-03-07T05:05:25.679Z,17.60
2023-03-07T05:07:57.411Z,17.40
2023-03-07T05:10:29.357Z,18.20
2023-03-07T05:13:01.612Z,16.40
2023-03-07T05:15:33.656Z,13.20
2023-03-07T05:18:05.630Z,15.10
2023-03-07T05:20:38.040Z,15.20
2023-03-07T05:23:10.047Z,14.90
2023-03-07T05:25:43.523Z,17.00
2023-03-07T05:28:16.926Z,15.20
2023-03-07T05:30:49.690Z,11.30
2023-03-07T05:33:21.446Z,14.40
2023-03-07T05:35:55.636Z,12.60
2023-03-07T05:38:28.110Z,12.10
2023-03-07T05:41:00.310Z,13.90
2023-03-07T05:43:32.161Z,12.60
2023-03-07T05:46:04.464Z,5.50
2023-03-07T05:48:36.303Z,12.70
2023-03-07T05:51:08.500Z,15.00
2023-03-07T05:53:40.330Z,13.00
2023-03-07T05:56:12.240Z,15.40
2023-03-07T05:58:44.091Z,14.10
2023-03-07T06:01:16.217Z,11.20
2023-03-07T06:03:48.570Z,12.90
2023-03-07T06:06:20.410Z,15.00
2023-03-07T06:08:52.140Z,15.40
2023-03-07T06:11:23.899Z,15.50
2023-03-07T06:13:56.038Z,16.00
2023-03-07T06:16:27.888Z,15.30
2023-03-07T06:19:00.021Z,14.10
2023-03-07T06:21:31.865Z,13.90
2023-03-07T06:24:03.588Z,14.10
2023-03-07T06:26:35.489Z,13.70
2023-03-07T06:29:07.333Z,13.10
2023-03-07T06:31:39.451Z,11.80
2023-03-07T06:34:11.591Z,11.40
2023-03-07T06:36:43.544Z,16.00
2023-03-07T06:39:17.005Z,16.00
2023-03-07T06:41:49.397Z,14.70
2023-03-07T06:44:21.130Z,15.50
2023-03-07T06:46:52.820Z,15.20
2023-03-07T06:49:25.666Z,16.20
2023-03-07T06:51:57.534Z,16.10
2023-03-07T06:54:29.336Z,16.20
2023-03-07T06:57:01.207Z,14.80
2023-03-07T06:59:32.998Z,13.90
2023-03-07T07:02:06.183Z,16.00
2023-03-07T07:04:38.111Z,15.20
2023-03-07T07:07:09.928Z,15.00
2023-03-07T07:09:41.822Z,13.90
2023-03-07T07:12:13.860Z,15.30
2023-03-07T07:14:45.640Z,11.40
2023-03-07T07:17:18.218Z,13.40
2023-03-07T07:19:50.607Z,14.40
2023-03-07T07:22:23.209Z,13.60
2023-03-07T07:24:55.006Z,13.20
2023-03-07T07:27:28.393Z,16.50
2023-03-07T07:30:00.906Z,16.00
2023-03-07T07:32:32.857Z,16.00
2023-03-07T07:35:05.134Z,15.00
2023-03-07T07:37:37.020Z,16.00
2023-03-07T07:40:11.680Z,14.50
2023-03-07T07:42:44.512Z,12.60
2023-03-07T07:45:25.727Z,15.10
2023-03-07T07:47:58.006Z,11.90
2023-03-07T07:50:29.853Z,12.10
2023-03-07T07:53:01.585Z,11.70
2023-03-07T07:55:33.537Z,14.60
2023-03-07T07:58:06.291Z,15.40
2023-03-07T08:00:39.435Z,16.40
2023-03-07T08:03:11.396Z,15.50
2023-03-07T08:05:48.238Z,13.90
2023-03-07T08:08:20.741Z,12.60
2023-03-07T08:10:52.517Z,14.50
2023-03-07T08:13:24.391Z,13.50
2023-03-07T08:15:56.415Z,14.60
2023-03-07T08:18:28.159Z,12.30
2023-03-07T08:21:03.115Z,15.30
2023-03-07T08:23:34.953Z,15.90
2023-03-07T08:26:08.352Z,16.60
2023-03-07T08:28:41.054Z,16.40
2023-03-07T08:31:14.822Z,17.10
2023-03-07T08:33:48.637Z,16.10
2023-03-07T08:36:20.647Z,14.10
2023-03-07T08:38:53.773Z,17.50
2023-03-07T08:41:25.865Z,15.90
2023-03-07T08:43:57.652Z,13.50
2023-03-07T08:46:29.504Z,17.40
2023-03-07T08:49:01.237Z,17.40
2023-03-07T08:51:33.024Z,17.40
2023-03-07T08:54:04.991Z,18.20
2023-03-07T08:56:37.018Z,18.80
2023-03-07T08:59:08.743Z,19.20
2023-03-07T09:01:41.295Z,18.00
2023-03-07T09:04:13.302Z,17.00
2023-03-07T09:06:45.150Z,17.60
2023-03-07T09:09:16.901Z,16.60
2023-03-07T09:11:48.628Z,13.20
2023-03-07T09:14:20.304Z,14.70
2023-03-07T09:16:52.317Z,15.90
2023-03-07T09:19:27.089Z,10.20
2023-03-07T09:21:58.964Z,13.40
2023-03-07T09:24:30.784Z,11.60
2023-03-07T09:27:02.477Z,12.10
2023-03-07T09:29:34.467Z,9.60
2023-03-07T09:32:06.945Z,12.80
2023-03-07T09:34:38.980Z,10.50
2023-03-07T09:37:10.981Z,12.10
2023-03-07T09:39:42.907Z,13.10
2023-03-07T09:42:20.276Z,9.20
2023-03-07T09:45:10.789Z,13.30
2023-03-07T09:48:04.326Z,9.70
2023-03-07T09:50:42.679Z,11.10
2023-03-07T09:53:22.692Z,9.70
2023-03-07T09:55:57.541Z,13.50
2023-03-07T09:58:29.826Z,10.40
2023-03-07T10:01:02.903Z,14.00
2023-03-07T10:03:39.518Z,11.60
2023-03-07T10:06:17.234Z,11.20
2023-03-07T10:08:49.155Z,9.40
2023-03-07T10:11:29.157Z,9.30
2023-03-07T10:14:12.163Z,10.70
2023-03-07T10:16:50.763Z,11.50
2023-03-07T10:19:29.391Z,9.40
2023-03-07T10:22:06.760Z,13.10
2023-03-07T10:24:52.876Z,11.10
2023-03-07T10:27:28.625Z,11.50
2023-03-07T10:30:01.973Z,11.50
2023-03-07T10:32:35.996Z,11.40
2023-03-07T10:35:21.167Z,14.50
2023-03-07T10:37:54.695Z,11.70
2023-03-07T10:40:29.767Z,10.70
2023-03-07T10:43:02.281Z,12.20
2023-03-07T10:45:37.901Z,11.80
2023-03-07T10:48:13.070Z,14.80
2023-03-07T10:50:47.981Z,14.60
2023-03-07T10:53:26.060Z,15.80
2023-03-07T10:56:11.406Z,12.70
2023-03-07T10:58:59.433Z,12.90
2023-03-07T11:01:32.183Z,12.90
2023-03-07T11:04:05.133Z,12.90
2023-03-07T11:06:39.360Z,11.90
2023-03-07T11:09:25.246Z,13.30
2023-03-07T11:11:59.450Z,13.10
2023-03-07T11:14:31.690Z,9.50
2023-03-07T11:17:04.427Z,12.10
2023-03-07T11:19:42.624Z,8.60
2023-03-07T11:22:22.799Z,12.00
2023-03-07T11:25:02.118Z,12.90
2023-03-07T11:27:49.355Z,11.50
2023-03-07T11:30:26.666Z,12.40
2023-03-07T11:33:05.854Z,13.30
2023-03-07T11:35:51.453Z,13.50
2023-03-07T11:38:31.155Z,11.70
2023-03-07T11:41:06.144Z,9.90
2023-03-07T11:43:47.731Z,21.70
2023-03-07T11:46:23.734Z,14.80
2023-03-07T11:49:01.334Z,13.30
2023-03-07T11:51:46.197Z,11.70
2023-03-07T11:54:25.167Z,11.50
2023-03-07T11:57:00.481Z,12.30
2023-03-07T11:59:55.065Z,11.30
2023-03-07T12:02:41.314Z,8.20
2023-03-07T12:05:22.198Z,8.60
2023-03-07T12:08:07.230Z,10.30
2023-03-07T12:10:49.623Z,10.30
2023-03-07T12:13:32.826Z,7.80
2023-03-07T12:16:10.503Z,9.00
2023-03-07T12:18:55.914Z,10.20
2023-03-07T12:21:42.901Z,9.10
2023-03-07T12:24:18.681Z,10.20
2023-03-07T12:26:57.285Z,10.30
2023-03-07T12:29:37.747Z,10.60
2023-03-07T12:32:12.924Z,10.00
2023-03-07T12:34:47.482Z,10.00
2023-03-07T12:37:21.532Z,9.50
2023-03-07T12:39:55.571Z,9.40
2023-03-07T12:42:34.023Z,8.00
2023-03-07T12:45:09.517Z,6.90
2023-03-07T12:47:56.932Z,8.80
2023-03-07T12:50:32.989Z,9.60
2023-03-07T12:53:10.370Z,8.50
2023-03-07T12:55:46.246Z,9.70
2023-03-07T12:58:23.280Z,9.10
2023-03-07T13:00:58.199Z,8.40
2023-03-07T13:03:35.617Z,9.90
2023-03-07T13:06:09.378Z,7.10
2023-03-07T13:08:43.250Z,7.30
2023-03-07T13:11:22.632Z,7.40
2023-03-07T13:13:58.504Z,9.40
2023-03-07T13:16:41.763Z,10.00
2023-03-07T13:19:44.397Z,7.20
2023-03-07T13:22:51.004Z,7.60
2023-03-07T13:25:43.733Z,7.40
2023-03-07T13:28:50.950Z,7.50
2023-03-07T13:31:30.823Z,7.40
2023-03-07T13:34:46.792Z,7.30
2023-03-07T13:37:49.063Z,6.80
2023-03-07T13:40:56.283Z,7.00
2023-03-07T13:43:58.229Z,6.90
2023-03-07T13:46:55.181Z,4.50
2023-03-07T13:49:44.621Z,6.80
2023-03-07T13:52:37.905Z,6.00
2023-03-07T13:55:27.800Z,6.20
2023-03-07T13:58:10.641Z,6.40
2023-03-07T14:00:49.411Z,7.00
2023-03-07T14:03:37.132Z,4.40
2023-03-07T14:06:14.373Z,5.90
2023-03-07T14:08:46.315Z,7.00
2023-03-07T14:11:22.957Z,4.90
2023-03-07T14:14:17.232Z,6.80
2023-03-07T14:16:58.084Z,6.70
2023-03-07T14:19:48.113Z,6.50
2023-03-07T14:22:26.905Z,7.20
2023-03-07T14:25:10.196Z,4.50
2023-03-07T14:27:53.075Z,5.80
2023-03-07T14:30:26.969Z,5.70
2023-03-07T14:32:58.849Z,4.20
2023-03-07T14:35:42.573Z,4.90
2023-03-07T14:38:20.905Z,4.90
2023-03-07T14:41:01.900Z,5.50
2023-03-07T14:43:42.033Z,5.30
2023-03-07T14:46:22.958Z,5.50
2023-03-07T14:49:04.253Z,5.00
2023-03-07T14:51:40.590Z,4.80
2023-03-07T14:54:18.493Z,4.70
2023-03-07T14:56:52.674Z,6.30
2023-03-07T14:59:29.027Z,3.90
2023-03-07T15:02:01.027Z,6.70
2023-03-07T15:04:35.848Z,5.50
2023-03-07T15:07:11.438Z,6.10
2023-03-07T15:09:43.193Z,6.00
2023-03-07T15:12:17.853Z,5.40
2023-03-07T15:17:22.096Z,5.00
2023-03-07T15:19:55.525Z,4.90
2023-03-07T15:22:29.672Z,5.00
2023-03-07T15:25:01.547Z,5.80
2023-03-07T15:27:34.345Z,5.10
2023-03-07T15:30:07.641Z,5.20
2023-03-07T15:32:40.971Z,4.90
2023-03-07T15:35:18.823Z,5.40
2023-03-07T15:37:58.606Z,5.10
2023-03-07T15:40:32.288Z,4.80
2023-03-07T15:43:19.574Z,6.50
2023-03-07T15:46:03.854Z,5.10
2023-03-07T15:48:40.943Z,5.60
2023-03-07T15:51:16.232Z,6.20
2023-03-07T15:53:56.676Z,5.80
2023-03-07T15:56:30.444Z,4.80
2023-03-07T15:59:03.263Z,5.70
2023-03-07T16:01:34.954Z,5.60
2023-03-07T16:04:20.340Z,5.30
2023-03-07T16:06:52.204Z,5.20
2023-03-07T16:09:23.934Z,5.00
2023-03-07T16:11:55.910Z,5.10
2023-03-07T16:14:29.141Z,5.40
2023-03-07T16:17:02.206Z,4.70
2023-03-07T16:19:33.933Z,4.70
2023-03-07T16:22:05.768Z,5.40
2023-03-07T16:24:37.509Z,5.20
2023-03-07T16:27:11.955Z,18.50
2023-03-07T16:29:43.744Z,4.90
2023-03-07T16:32:17.621Z,5.30
2023-03-07T16:34:49.827Z,5.20
2023-03-07T16:37:21.542Z,5.70
2023-03-07T16:39:53.234Z,5.30
2023-03-07T16:42:25.528Z,5.40
2023-03-07T16:44:57.392Z,5.90
2023-03-07T16:47:29.129Z,5.00
2023-03-07T16:50:01.265Z,5.20
2023-03-07T16:52:33.351Z,6.50
2023-03-07T16:55:05.361Z,7.00
2023-03-07T16:57:37.344Z,6.60
2023-03-07T17:00:13.222Z,7.10
2023-03-07T17:02:44.996Z,6.50
2023-03-07T17:05:20.914Z,6.60
2023-03-07T17:07:57.669Z,6.20
2023-03-07T17:10:29.501Z,6.00
2023-03-07T17:13:02.390Z,6.90
2023-03-07T17:15:36.118Z,6.20
2023-03-07T17:18:11.916Z,5.90
2023-03-07T17:20:43.905Z,6.00
2023-03-07T17:23:15.757Z,6.90
2023-03-07T17:25:48.006Z,5.20
2023-03-07T17:28:20.573Z,5.80
2023-03-07T17:30:53.944Z,4.70
2023-03-07T17:33:27.069Z,6.00
2023-03-07T17:36:00.955Z,5.70
2023-03-07T17:38:32.753Z,6.30
2023-03-07T17:41:04.900Z,8.10
2023-03-07T17:43:36.753Z,6.80
2023-03-07T17:46:12.458Z,7.30
2023-03-07T17:48:44.284Z,6.50
2023-03-07T17:51:16.132Z,6.60
2023-03-07T17:53:47.938Z,5.80
2023-03-07T17:56:19.711Z,6.60
2023-03-07T17:58:51.697Z,6.70
2023-03-07T18:01:23.396Z,7.10
2023-03-07T18:03:55.381Z,7.10
2023-03-07T18:06:27.544Z,6.90
2023-03-07T18:08:59.280Z,7.60
2023-03-07T18:11:31.140Z,8.10
2023-03-07T18:14:03.894Z,8.70
2023-03-07T18:16:35.712Z,7.30
2023-03-07T18:19:14.243Z,7.60
2023-03-07T18:21:49.814Z,6.50
2023-03-07T18:24:23.066Z,5.00
2023-03-07T18:26:55.367Z,5.80
2023-03-07T18:29:27.824Z,5.90
2023-03-07T18:32:00.370Z,5.40
2023-03-07T18:34:32.146Z,5.50
2023-03-07T18:37:03.948Z,5.60
2023-03-07T18:39:36.216Z,5.10
2023-03-07T18:42:08.408Z,5.50
2023-03-07T18:44:42.562Z,4.50
2023-03-07T18:47:14.408Z,4.80
2023-03-07T18:49:46.432Z,5.00
2023-03-07T18:52:18.705Z,5.40
2023-03-07T18:54:51.960Z,3.20
2023-03-07T18:57:23.680Z,6.10
2023-03-07T18:59:55.353Z,6.00
2023-03-07T19:02:27.277Z,5.90
2023-03-07T19:04:59.139Z,4.80
2023-03-07T19:07:32.190Z,6.00
2023-03-07T19:10:03.981Z,4.30
2023-03-07T19:12:35.773Z,6.10
2023-03-07T19:15:09.031Z,6.00
2023-03-07T19:17:44.243Z,5.70
2023-03-07T19:20:16.923Z,5.40
2023-03-07T19:22:48.676Z,4.30
2023-03-07T19:25:20.468Z,3.10
2023-03-07T19:27:52.496Z,5.90
2023-03-07T19:30:24.659Z,5.20
2023-03-07T19:32:56.471Z,6.00
2023-03-07T19:35:28.227Z,5.90
2023-03-07T19:38:00.243Z,5.70
2023-03-07T19:40:32.232Z,4.40
2023-03-07T19:43:04.025Z,5.70
2023-03-07T19:45:35.966Z,4.60
2023-03-07T19:48:08.266Z,3.60
2023-03-07T19:50:43.800Z,5.00
2023-03-07T19:53:15.728Z,4.50
2023-03-07T19:55:47.794Z,4.20
2023-03-07T19:58:19.620Z,5.70
2023-03-07T20:00:51.412Z,4.30
2023-03-07T20:03:23.158Z,5.00
2023-03-07T20:05:54.938Z,5.20
2023-03-07T20:08:26.883Z,5.00
2023-03-07T20:11:08.978Z,4.50
2023-03-07T20:13:41.360Z,8.60
2023-03-07T20:16:13.496Z,5.30
2023-03-07T20:18:45.612Z,4.60
2023-03-07T20:21:17.398Z,4.30
2023-03-07T20:23:49.816Z,2.70
2023-03-07T20:26:23.688Z,4.40
2023-03-07T20:28:57.369Z,4.60
2023-03-07T20:31:29.712Z,4.90
2023-03-07T20:34:02.579Z,4.60
2023-03-07T20:36:35.517Z,3.90
2023-03-07T20:39:09.950Z,3.90
2023-03-07T20:41:41.892Z,3.40
2023-03-07T20:44:15.711Z,5.40
2023-03-07T20:46:47.414Z,3.40
2023-03-07T20:49:19.193Z,3.70
2023-03-07T20:51:50.960Z,5.40
2023-03-07T20:54:22.638Z,5.00
2023-03-07T20:56:54.788Z,5.60
2023-03-07T20:59:26.511Z,8.60
2023-03-07T21:01:58.391Z,5.00
2023-03-07T21:04:30.033Z,4.00
2023-03-07T21:07:02.057Z,4.70
2023-03-07T21:09:33.955Z,4.40
2023-03-07T21:12:08.511Z,4.20
2023-03-07T21:14:40.562Z,5.50
2023-03-07T21:17:13.191Z,4.40
2023-03-07T21:19:44.928Z,5.60
2023-03-07T21:22:16.810Z,4.60
2023-03-07T21:24:48.709Z,3.40
2023-03-07T21:27:20.626Z,4.20
2023-03-07T21:29:52.288Z,4.50
2023-03-07T21:32:24.037Z,4.80
2023-03-07T21:34:55.774Z,5.90
2023-03-07T21:37:27.513Z,4.10
2023-03-07T21:39:59.260Z,5.50
2023-03-07T21:42:31.173Z,4.60
2023-03-07T21:45:02.967Z,5.70
2023-03-07T21:47:34.776Z,4.50
2023-03-07T21:50:07.254Z,5.00
2023-03-07T21:52:39.138Z,4.50
2023-03-07T21:55:13.594Z,5.50
2023-03-07T21:57:45.484Z,4.70
2023-03-07T22:00:18.388Z,4.50
2023-03-07T22:02:50.099Z,4.40
2023-03-07T22:05:23.393Z,5.00
2023-03-07T22:07:55.202Z,5.00
2023-03-07T22:10:27.067Z,3.80
2023-03-07T22:12:58.849Z,4.90
2023-03-07T22:15:30.621Z,4.70
2023-03-07T22:18:02.437Z,5.50
2023-03-07T22:20:34.296Z,5.60
2023-03-07T22:23:06.107Z,4.30
2023-03-07T22:25:37.935Z,4.50
2023-03-07T22:28:09.681Z,4.70
2023-03-07T22:30:41.445Z,3.10
2023-03-07T22:33:13.366Z,4.60
2023-03-07T22:35:45.364Z,4.20
2023-03-07T22:38:19.309Z,4.60
2023-03-07T22:40:51.269Z,4.30
2023-03-07T22:43:23.035Z,4.30
2023-03-07T22:45:54.844Z,3.90
2023-03-07T22:48:26.789Z,3.90
2023-03-07T22:50:59.113Z,3.70
2023-03-07T22:53:32.156Z,3.20
2023-03-07T22:56:04.210Z,3.40
2023-03-07T22:58:36.154Z,2.80
2023-03-07T23:01:13.678Z,2.00
2023-03-07T23:03:45.663Z,2.40
2023-03-07T23:06:17.862Z,1.90
2023-03-07T23:08:51.553Z,1.40
2023-03-07T23:11:24.570Z,1.90
2023-03-07T23:13:56.653Z,1.70
2023-03-07T23:16:29.729Z,1.80
2023-03-07T23:19:02.206Z,2.00
2023-03-07T23:21:34.934Z,1.70
2023-03-07T23:24:07.368Z,0.90
2023-03-07T23:26:40.647Z,1.40
2023-03-07T23:29:12.694Z,1.10
2023-03-07T23:31:44.629Z,0.80
2023-03-07T23:34:18.894Z,0.90
2023-03-07T23:36:50.793Z,1.10
2023-03-07T23:39:23.189Z,1.20
2023-03-07T23:41:55.146Z,1.10
2023-03-07T23:44:27.033Z,0.80
2023-03-07T23:46:58.867Z,1.00
2023-03-07T23:49:30.748Z,0.90
2023-03-07T23:52:02.467Z,0.80
2023-03-07T23:54:34.209Z,1.20
2023-03-07T23:57:06.381Z,1.10
2023-03-07T23:59:38.065Z,1.10
